createdAt,value
2022-11-22T00:00:39.210Z,18.67
2022-11-22T00:03:06.733Z,19.40
2022-11-22T00:05:34.145Z,19.10
2022-11-22T00:08:01.585Z,18.43
2022-11-22T00:10:29.026Z,18.67
2022-11-22T00:12:56.381Z,19.00
2022-11-22T00:15:23.792Z,18.03
2022-11-22T00:17:51.143Z,19.37
2022-11-22T00:20:18.530Z,18.93
2022-11-22T00:22:46.352Z,16.13
2022-11-22T00:25:14.487Z,18.50
2022-11-22T00:27:42.083Z,17.03
2022-11-22T00:30:09.890Z,16.93
2022-11-22T00:32:37.334Z,16.17
2022-11-22T00:35:04.690Z,15.87
2022-11-22T00:37:32.040Z,16.03
2022-11-22T00:39:59.446Z,13.87
2022-11-22T00:42:27.170Z,13.23
2022-11-22T00:44:54.563Z,14.17
2022-11-22T00:47:22.608Z,12.17
2022-11-22T00:49:50.057Z,13.13
2022-11-22T00:52:17.472Z,12.47
2022-11-22T00:54:48.861Z,13.13
2022-11-22T00:57:18.941Z,15.17
2022-11-22T00:59:46.332Z,14.17
2022-11-22T01:02:13.718Z,13.73
2022-11-22T01:04:41.122Z,12.57
2022-11-22T01:07:08.568Z,13.07
2022-11-22T01:09:36.118Z,12.80
2022-11-22T01:12:03.551Z,11.80
2022-11-22T01:14:31.058Z,11.10
2022-11-22T01:16:58.462Z,9.57
2022-11-22T01:19:25.818Z,8.27
2022-11-22T01:21:53.197Z,7.60
2022-11-22T01:24:20.621Z,8.53
2022-11-22T01:26:48.008Z,9.13
2022-11-22T01:29:15.513Z,10.43
2022-11-22T01:31:42.937Z,13.57
2022-11-22T01:34:10.292Z,14.90
2022-11-22T01:36:37.634Z,14.10
2022-11-22T01:39:04.982Z,16.10
2022-11-22T01:41:32.325Z,15.57
2022-11-22T01:44:21.805Z,12.40
2022-11-22T01:46:59.510Z,15.93
2022-11-22T01:49:33.869Z,15.00
2022-11-22T01:52:05.762Z,15.60
2022-11-22T01:54:35.649Z,16.37
2022-11-22T01:57:10.533Z,15.43
2022-11-22T01:59:44.547Z,14.47
2022-11-22T02:02:13.111Z,14.60
2022-11-22T02:04:41.545Z,15.90
2022-11-22T02:07:08.873Z,15.73
2022-11-22T02:09:37.917Z,16.03
2022-11-22T02:12:06.405Z,15.13
2022-11-22T02:14:34.821Z,17.37
2022-11-22T02:17:02.097Z,15.47
2022-11-22T02:19:47.282Z,16.20
2022-11-22T02:22:31.190Z,14.93
2022-11-22T02:25:19.701Z,14.87
2022-11-22T02:27:46.993Z,16.57
2022-11-22T02:30:14.299Z,14.47
2022-11-22T02:32:41.673Z,15.03
2022-11-22T02:35:20.766Z,14.27
2022-11-22T02:37:51.493Z,13.27
2022-11-22T02:40:20.060Z,14.13
2022-11-22T02:42:56.256Z,13.27
2022-11-22T02:45:23.123Z,12.13
2022-11-22T02:47:50.424Z,11.33
2022-11-22T02:50:17.306Z,10.90
2022-11-22T02:52:44.612Z,10.43
2022-11-22T02:55:11.845Z,10.80
2022-11-22T02:57:38.725Z,9.90
2022-11-22T03:00:06.343Z,10.33
2022-11-22T03:02:33.637Z,9.80
2022-11-22T03:05:00.856Z,9.40
2022-11-22T03:07:28.162Z,9.00
2022-11-22T03:09:56.493Z,10.70
2022-11-22T03:12:23.771Z,10.63
2022-11-22T03:14:51.029Z,9.63
2022-11-22T03:17:18.317Z,8.23
2022-11-22T03:19:45.755Z,8.13
2022-11-22T03:22:13.696Z,8.03
2022-11-22T03:24:41.018Z,6.70
2022-11-22T03:27:08.277Z,6.97
2022-11-22T03:29:35.569Z,8.30
2022-11-22T03:32:02.875Z,7.60
2022-11-22T03:34:30.147Z,6.90
2022-11-22T03:36:57.398Z,7.70
2022-11-22T03:39:24.385Z,8.13
2022-11-22T03:41:51.739Z,7.07
2022-11-22T03:44:19.029Z,8.20
2022-11-22T03:46:46.361Z,8.50
2022-11-22T03:49:13.625Z,8.20
2022-11-22T03:51:40.908Z,9.97
2022-11-22T03:54:08.223Z,7.43
2022-11-22T03:56:35.558Z,8.60
2022-11-22T03:59:02.852Z,9.67
2022-11-22T04:01:30.248Z,8.70
2022-11-22T04:03:57.641Z,8.70
2022-11-22T04:06:24.488Z,9.00
2022-11-22T04:08:51.391Z,9.97
2022-11-22T04:11:18.671Z,12.10
2022-11-22T04:14:04.099Z,11.87
2022-11-22T04:16:31.377Z,10.93
2022-11-22T04:18:58.625Z,10.87
2022-11-22T04:21:34.879Z,9.53
2022-11-22T04:24:25.503Z,11.03
2022-11-22T04:26:53.240Z,9.97
2022-11-22T04:29:22.610Z,10.10
2022-11-22T04:32:09.312Z,9.70
2022-11-22T04:34:36.796Z,10.10
2022-11-22T04:37:04.523Z,9.40
2022-11-22T04:39:32.427Z,11.03
2022-11-22T04:42:38.767Z,10.73
2022-11-22T04:45:06.327Z,11.27
2022-11-22T04:47:51.949Z,11.70
2022-11-22T04:50:38.038Z,11.33
2022-11-22T04:53:05.368Z,11.57
2022-11-22T04:55:32.623Z,10.23
2022-11-22T04:58:00.401Z,10.17
2022-11-22T05:00:31.632Z,10.30
2022-11-22T05:02:59.047Z,9.97
2022-11-22T05:05:26.546Z,12.65
2022-11-22T05:07:54.099Z,11.13
2022-11-22T05:10:26.179Z,9.77
2022-11-22T05:12:54.597Z,9.27
2022-11-22T05:15:21.869Z,9.80
2022-11-22T05:17:49.211Z,9.77
2022-11-22T05:20:16.535Z,9.73
2022-11-22T05:23:02.504Z,8.70
2022-11-22T05:25:29.741Z,7.63
2022-11-22T05:27:57.140Z,8.27
2022-11-22T05:30:24.393Z,11.20
2022-11-22T05:32:51.969Z,7.97
2022-11-22T05:35:20.844Z,8.17
2022-11-22T05:37:48.108Z,7.73
2022-11-22T05:40:17.796Z,7.20
2022-11-22T05:42:45.170Z,9.43
2022-11-22T05:45:11.994Z,7.70
2022-11-22T05:47:38.826Z,7.10
2022-11-22T05:50:06.336Z,6.60
2022-11-22T05:52:33.639Z,6.47
2022-11-22T05:55:00.696Z,6.90
2022-11-22T05:57:28.134Z,6.67
2022-11-22T05:59:55.019Z,5.90
2022-11-22T06:02:22.399Z,5.93
2022-11-22T06:04:49.764Z,6.53
2022-11-22T06:07:17.204Z,8.03
2022-11-22T06:09:44.522Z,6.90
2022-11-22T06:12:11.806Z,6.00
2022-11-22T06:14:43.153Z,6.20
2022-11-22T06:17:11.005Z,6.27
2022-11-22T06:19:38.300Z,6.47
2022-11-22T06:22:06.120Z,5.50
2022-11-22T06:24:33.029Z,5.37
2022-11-22T06:27:00.821Z,5.00
2022-11-22T06:29:28.412Z,5.60
2022-11-22T06:32:00.420Z,4.37
2022-11-22T06:34:30.303Z,4.37
2022-11-22T06:36:57.540Z,4.80
2022-11-22T06:39:24.408Z,4.40
2022-11-22T06:41:53.024Z,4.27
2022-11-22T06:44:20.295Z,4.90
2022-11-22T06:46:47.186Z,4.90
2022-11-22T06:49:14.956Z,4.07
2022-11-22T06:51:42.455Z,4.77
2022-11-22T06:54:12.609Z,4.83
2022-11-22T06:56:41.429Z,4.47
2022-11-22T06:59:08.807Z,4.43
2022-11-22T07:01:37.738Z,4.40
2022-11-22T07:04:05.256Z,4.80
2022-11-22T07:06:38.197Z,3.93
2022-11-22T07:09:08.100Z,4.67
2022-11-22T07:11:36.253Z,4.70
2022-11-22T07:14:08.127Z,4.33
2022-11-22T07:16:37.688Z,5.17
2022-11-22T07:19:06.764Z,4.43
2022-11-22T07:21:34.070Z,4.23
2022-11-22T07:24:01.330Z,5.10
2022-11-22T07:26:28.558Z,4.83
2022-11-22T07:28:55.618Z,4.40
2022-11-22T07:31:23.222Z,5.50
2022-11-22T07:33:50.549Z,4.27
2022-11-22T07:36:22.066Z,4.60
2022-11-22T07:38:49.708Z,5.23
2022-11-22T07:41:18.219Z,5.10
2022-11-22T07:43:46.816Z,5.80
2022-11-22T07:46:31.787Z,5.53
2022-11-22T07:49:00.678Z,6.47
2022-11-22T07:51:28.226Z,5.43
2022-11-22T07:53:56.534Z,4.07
2022-11-22T07:56:24.058Z,4.27
2022-11-22T07:58:51.546Z,3.60
2022-11-22T08:01:19.408Z,4.13
2022-11-22T08:03:46.812Z,5.23
2022-11-22T08:06:14.779Z,3.57
2022-11-22T08:08:50.850Z,3.97
2022-11-22T08:11:18.188Z,3.80
2022-11-22T08:13:45.527Z,4.20
2022-11-22T08:16:15.176Z,3.17
2022-11-22T08:18:46.795Z,4.20
2022-11-22T08:21:14.588Z,4.00
2022-11-22T08:23:42.828Z,4.00
2022-11-22T08:26:12.742Z,3.70
2022-11-22T08:28:40.354Z,3.33
2022-11-22T08:31:16.525Z,4.33
2022-11-22T08:33:43.800Z,2.87
2022-11-22T08:36:11.161Z,3.00
2022-11-22T08:38:38.517Z,3.73
2022-11-22T08:41:08.672Z,5.70
2022-11-22T08:43:35.997Z,3.20
2022-11-22T08:46:03.844Z,3.30
2022-11-22T08:48:32.621Z,3.10
2022-11-22T08:51:06.446Z,3.40
2022-11-22T08:53:34.794Z,3.47
2022-11-22T08:56:03.357Z,2.60
2022-11-22T08:58:33.175Z,5.00
2022-11-22T09:01:07.708Z,3.00
2022-11-22T09:03:35.688Z,3.70
2022-11-22T09:09:08.418Z,3.10
2022-11-22T09:11:42.095Z,3.97
2022-11-22T09:14:09.417Z,3.07
2022-11-22T09:16:36.720Z,6.97
2022-11-22T09:19:03.979Z,3.63
2022-11-22T09:21:31.373Z,3.43
2022-11-22T09:23:58.691Z,3.67
2022-11-22T09:26:25.972Z,3.23
2022-11-22T09:28:53.406Z,3.60
2022-11-22T09:31:22.047Z,3.43
2022-11-22T09:33:49.759Z,3.30
2022-11-22T09:36:19.564Z,3.53
2022-11-22T09:38:46.853Z,4.57
2022-11-22T09:41:16.427Z,3.83
2022-11-22T09:44:09.013Z,3.57
2022-11-22T09:47:01.411Z,3.17
2022-11-22T09:49:51.076Z,3.70
2022-11-22T09:52:58.443Z,3.50
2022-11-22T09:55:33.554Z,2.93
2022-11-22T09:58:09.113Z,3.83
2022-11-22T10:00:36.576Z,3.50
2022-11-22T10:03:24.604Z,3.57
2022-11-22T10:05:53.943Z,3.17
2022-11-22T10:08:41.363Z,3.13
2022-11-22T10:11:36.205Z,2.83
2022-11-22T10:14:30.240Z,2.90
2022-11-22T10:17:19.990Z,2.53
2022-11-22T10:20:06.635Z,2.43
2022-11-22T10:22:35.403Z,2.43
2022-11-22T10:25:12.909Z,3.37
2022-11-22T10:27:41.942Z,3.13
2022-11-22T10:30:16.278Z,2.47
2022-11-22T10:32:58.867Z,2.37
2022-11-22T10:35:34.836Z,2.17
2022-11-22T10:38:32.610Z,2.17
2022-11-22T10:41:32.592Z,3.00
2022-11-22T10:44:11.827Z,2.40
2022-11-22T10:46:39.072Z,2.50
2022-11-22T10:49:38.884Z,4.17
2022-11-22T10:52:14.721Z,2.40
2022-11-22T10:54:58.691Z,2.50
2022-11-22T10:57:48.199Z,1.90
2022-11-22T11:00:25.979Z,2.67
2022-11-22T11:03:30.194Z,2.30
2022-11-22T11:06:33.325Z,2.30
2022-11-22T11:12:05.734Z,1.83
2022-11-22T11:14:47.070Z,2.50
2022-11-22T11:17:18.127Z,2.23
2022-11-22T11:19:49.762Z,3.60
2022-11-22T11:22:37.386Z,2.30
2022-11-22T11:25:40.374Z,2.53
2022-11-22T11:28:18.529Z,2.37
2022-11-22T11:30:51.403Z,2.20
2022-11-22T11:33:18.689Z,2.77
2022-11-22T11:35:47.413Z,2.00
2022-11-22T11:38:34.658Z,2.40
2022-11-22T11:41:24.010Z,2.57
2022-11-22T11:43:53.274Z,2.50
2022-11-22T11:46:20.653Z,2.40
2022-11-22T11:48:49.496Z,2.20
2022-11-22T11:51:37.219Z,2.73
2022-11-22T11:54:17.069Z,2.83
2022-11-22T11:56:57.698Z,2.53
2022-11-22T11:59:40.077Z,2.37
2022-11-22T12:02:38.702Z,2.73
2022-11-22T12:05:13.191Z,2.00
2022-11-22T12:07:46.277Z,3.57
2022-11-22T12:10:48.425Z,3.27
2022-11-22T12:14:12.185Z,2.00
2022-11-22T12:16:52.131Z,2.30
2022-11-22T12:19:55.503Z,2.37
2022-11-22T12:22:58.672Z,2.10
2022-11-22T12:25:38.203Z,1.80
2022-11-22T12:28:17.130Z,2.20
2022-11-22T12:30:48.060Z,2.07
2022-11-22T12:33:33.201Z,3.70
2022-11-22T12:36:03.037Z,2.10
2022-11-22T12:38:38.436Z,1.87
2022-11-22T12:41:10.612Z,2.93
2022-11-22T12:43:58.119Z,1.87
2022-11-22T12:46:42.056Z,1.90
2022-11-22T12:49:41.607Z,2.23
2022-11-22T12:52:15.653Z,1.73
2022-11-22T12:55:02.561Z,2.37
2022-11-22T12:57:41.091Z,3.70
2022-11-22T13:00:22.350Z,1.60
2022-11-22T13:02:59.273Z,1.80
2022-11-22T13:05:34.494Z,2.10
2022-11-22T13:08:18.442Z,2.07
2022-11-22T13:10:45.766Z,2.23
2022-11-22T13:13:31.984Z,2.03
2022-11-22T13:16:02.795Z,1.60
2022-11-22T13:18:36.914Z,2.13
2022-11-22T13:21:26.152Z,2.37
2022-11-22T13:24:12.808Z,2.80
2022-11-22T13:27:19.621Z,2.00
2022-11-22T13:29:47.581Z,2.87
2022-11-22T13:32:14.738Z,2.80
2022-11-22T13:35:04.444Z,2.50
2022-11-22T13:37:36.701Z,2.70
2022-11-22T13:40:32.314Z,3.40
2022-11-22T13:43:21.173Z,3.13
2022-11-22T13:45:49.057Z,2.30
2022-11-22T13:48:40.893Z,1.90
2022-11-22T13:51:13.211Z,2.60
2022-11-22T13:53:49.962Z,2.10
2022-11-22T13:56:17.206Z,2.40
2022-11-22T13:59:08.436Z,2.33
2022-11-22T14:01:35.769Z,2.83
2022-11-22T14:04:19.590Z,2.40
2022-11-22T14:06:52.053Z,2.20
2022-11-22T14:09:52.335Z,2.60
2022-11-22T14:12:28.042Z,2.53
2022-11-22T14:15:23.063Z,2.90
2022-11-22T14:18:00.337Z,2.87
2022-11-22T14:20:27.603Z,2.80
2022-11-22T14:23:22.824Z,2.77
2022-11-22T14:26:09.614Z,2.30
2022-11-22T14:29:04.431Z,2.40
2022-11-22T14:31:35.579Z,3.17
2022-11-22T14:34:18.296Z,3.23
2022-11-22T14:37:05.989Z,3.40
2022-11-22T14:39:44.997Z,3.20
2022-11-22T14:42:52.146Z,3.10
2022-11-22T14:45:24.783Z,3.13
2022-11-22T14:47:52.250Z,2.50
2022-11-22T14:50:37.597Z,1.33
2022-11-22T14:53:36.746Z,1.60
2022-11-22T14:56:32.396Z,1.60
2022-11-22T14:59:54.096Z,1.23
2022-11-22T15:02:53.749Z,1.37
2022-11-22T15:09:09.898Z,1.50
2022-11-22T15:09:10.829Z,1.00
2022-11-22T15:11:43.755Z,1.40
2022-11-22T15:14:34.972Z,1.60
2022-11-22T15:59:42.017Z,2.90
2022-11-22T16:02:19.912Z,2.07
2022-11-22T16:06:04.462Z,2.03
2022-11-22T16:07:49.510Z,2.37
2022-11-22T16:10:24.528Z,2.23
2022-11-22T16:12:52.607Z,2.97
2022-11-22T16:15:25.738Z,2.27
2022-11-22T16:18:23.632Z,1.83
2022-11-22T16:21:02.526Z,2.53
2022-11-22T16:23:34.927Z,2.30
2022-11-22T16:26:22.330Z,2.73
2022-11-22T16:28:54.307Z,1.77
2022-11-22T16:31:26.626Z,2.83
2022-11-22T16:33:55.009Z,2.03
2022-11-22T16:36:24.379Z,2.20
2022-11-22T16:38:51.733Z,3.13
2022-11-22T16:41:26.360Z,2.60
2022-11-22T16:44:02.837Z,2.83
2022-11-22T16:46:30.396Z,2.43
2022-11-22T16:48:57.926Z,2.50
2022-11-22T16:51:29.512Z,1.97
2022-11-22T16:54:05.479Z,2.00
2022-11-22T16:56:33.294Z,2.50
2022-11-22T16:59:00.682Z,2.10
2022-11-22T17:01:32.698Z,2.07
2022-11-22T17:04:03.047Z,2.03
2022-11-22T17:06:31.107Z,2.63
2022-11-22T17:08:59.500Z,2.97
2022-11-22T17:11:31.574Z,2.60
2022-11-22T17:13:59.474Z,2.50
2022-11-22T17:16:29.681Z,2.60
2022-11-22T17:18:57.923Z,2.60
2022-11-22T17:21:30.355Z,2.10
2022-11-22T17:24:07.316Z,2.23
2022-11-22T17:26:35.022Z,1.97
2022-11-22T17:29:03.240Z,2.60
2022-11-22T17:31:31.536Z,2.93
2022-11-22T17:33:59.508Z,2.10
2022-11-22T17:36:37.326Z,2.57
2022-11-22T17:39:11.426Z,2.40
2022-11-22T17:41:39.146Z,2.40
2022-11-22T17:44:06.788Z,2.13
2022-11-22T17:46:38.258Z,2.50
2022-11-22T17:49:08.218Z,2.30
2022-11-22T17:51:38.718Z,2.73
2022-11-22T17:54:06.254Z,2.60
2022-11-22T17:56:36.504Z,3.10
2022-11-22T17:59:06.725Z,2.57
2022-11-22T18:01:36.872Z,2.33
2022-11-22T18:04:04.151Z,2.20
2022-11-22T18:06:32.290Z,2.87
2022-11-22T18:09:01.056Z,2.50
2022-11-22T18:11:31.564Z,3.73
2022-11-22T18:13:59.321Z,3.20
2022-11-22T18:16:28.898Z,3.10
2022-11-22T18:18:59.330Z,2.67
2022-11-22T18:21:29.681Z,2.87
2022-11-22T18:24:01.015Z,2.87
2022-11-22T18:26:44.422Z,3.37
2022-11-22T18:32:01.375Z,3.03
2022-11-22T18:34:29.545Z,2.60
2022-11-22T18:37:04.854Z,2.93
2022-11-22T18:39:35.445Z,3.40
2022-11-22T18:42:05.047Z,2.77
2022-11-22T18:44:33.697Z,3.03
2022-11-22T18:47:01.186Z,3.07
2022-11-22T18:49:28.788Z,3.20
2022-11-22T18:51:56.014Z,3.37
2022-11-22T18:54:23.685Z,3.10
2022-11-22T18:56:52.247Z,3.70
2022-11-22T18:59:19.839Z,3.10
2022-11-22T19:01:47.291Z,3.03
2022-11-22T19:04:15.228Z,3.23
2022-11-22T19:06:43.606Z,2.80
2022-11-22T19:09:11.287Z,2.50
2022-11-22T19:11:39.194Z,3.10
2022-11-22T19:14:06.895Z,3.23
2022-11-22T19:16:34.864Z,2.57
2022-11-22T19:19:02.488Z,3.43
2022-11-22T19:21:30.293Z,3.07
2022-11-22T19:23:57.975Z,4.93
2022-11-22T19:26:27.382Z,3.30
2022-11-22T19:28:56.113Z,4.50
2022-11-22T19:31:28.900Z,4.00
2022-11-22T19:33:56.784Z,4.20
2022-11-22T19:36:32.234Z,3.93
2022-11-22T19:39:01.202Z,3.47
2022-11-22T19:41:28.779Z,3.37
2022-11-22T19:43:56.409Z,3.00
2022-11-22T19:46:24.489Z,3.20
2022-11-22T19:48:52.383Z,3.90
2022-11-22T19:51:19.674Z,3.53
2022-11-22T19:53:47.326Z,3.17
2022-11-22T19:56:18.751Z,3.30
2022-11-22T19:58:51.969Z,3.33
2022-11-22T20:01:19.365Z,2.90
2022-11-22T20:03:46.817Z,3.27
2022-11-22T20:06:14.284Z,2.93
2022-11-22T20:08:41.394Z,2.40
2022-11-22T20:11:14.266Z,3.03
2022-11-22T20:13:43.443Z,3.93
2022-11-22T20:16:13.582Z,2.28
2022-11-22T20:18:40.938Z,2.37
2022-11-22T20:21:09.232Z,2.90
2022-11-22T20:23:36.800Z,2.77
2022-11-22T20:26:06.004Z,2.67
2022-11-22T20:28:33.268Z,2.97
2022-11-22T20:31:09.122Z,3.87
2022-11-22T20:33:37.886Z,2.43
2022-11-22T20:36:13.083Z,2.47
2022-11-22T20:38:41.560Z,2.37
2022-11-22T20:41:10.337Z,1.97
2022-11-22T20:43:37.932Z,3.00
2022-11-22T20:46:10.522Z,2.80
2022-11-22T20:48:38.777Z,2.50
2022-11-22T20:51:08.410Z,2.93
2022-11-22T20:53:35.867Z,3.27
2022-11-22T20:56:03.523Z,2.20
2022-11-22T20:58:32.032Z,2.33
2022-11-22T21:00:59.498Z,2.67
2022-11-22T21:03:27.604Z,2.20
2022-11-22T21:05:55.550Z,2.75
2022-11-22T21:08:23.533Z,2.57
2022-11-22T21:10:50.946Z,2.50
2022-11-22T21:13:18.431Z,3.67
2022-11-22T21:15:45.774Z,1.93
2022-11-22T21:18:28.372Z,2.17
2022-11-22T21:20:55.629Z,2.03
2022-11-22T21:23:22.897Z,2.20
2022-11-22T21:25:50.510Z,2.17
2022-11-22T21:28:17.877Z,1.70
2022-11-22T21:30:45.186Z,1.90
2022-11-22T21:33:12.533Z,1.60
2022-11-22T21:35:42.691Z,1.90
2022-11-22T21:38:13.786Z,1.97
2022-11-22T21:40:41.440Z,2.07
2022-11-22T21:43:08.960Z,2.17
2022-11-22T21:45:36.344Z,2.17
2022-11-22T21:48:04.634Z,1.90
2022-11-22T21:50:32.002Z,1.73
2022-11-22T21:52:59.511Z,1.37
2022-11-22T21:55:26.969Z,1.67
2022-11-22T21:57:54.460Z,1.50
2022-11-22T22:00:22.004Z,1.97
2022-11-22T22:02:49.472Z,1.67
2022-11-22T22:05:19.610Z,1.20
2022-11-22T22:07:54.199Z,1.60
2022-11-22T22:10:21.618Z,1.50
2022-11-22T22:12:52.206Z,1.57
2022-11-22T22:15:19.455Z,1.77
2022-11-22T22:17:46.874Z,1.43
2022-11-22T22:20:14.486Z,2.03
2022-11-22T22:22:42.064Z,1.50
2022-11-22T22:25:09.704Z,1.80
2022-11-22T22:27:37.061Z,1.70
2022-11-22T22:30:04.616Z,1.47
2022-11-22T22:32:32.108Z,1.30
2022-11-22T22:34:59.462Z,2.13
2022-11-22T22:37:26.817Z,1.63
2022-11-22T22:39:53.846Z,1.53
2022-11-22T22:42:21.473Z,2.03
2022-11-22T22:44:48.783Z,1.30
2022-11-22T22:47:16.395Z,1.60
2022-11-22T22:49:43.755Z,1.93
2022-11-22T22:52:11.415Z,2.30
2022-11-22T22:54:38.540Z,1.70
2022-11-22T22:57:05.864Z,1.80
2022-11-22T22:59:33.278Z,3.10
2022-11-22T23:02:00.655Z,1.80
2022-11-22T23:04:28.084Z,1.67
2022-11-22T23:06:55.232Z,1.73
2022-11-22T23:09:22.792Z,3.37
2022-11-22T23:12:08.829Z,1.60
2022-11-22T23:14:36.336Z,1.60
2022-11-22T23:17:03.437Z,1.40
2022-11-22T23:19:32.245Z,1.50
2022-11-22T23:21:59.682Z,1.80
2022-11-22T23:24:29.727Z,1.80
2022-11-22T23:26:57.207Z,1.70
2022-11-22T23:29:24.645Z,1.90
2022-11-22T23:31:52.727Z,1.70
2022-11-22T23:34:20.261Z,1.43
2022-11-22T23:36:47.652Z,1.40
2022-11-22T23:39:15.108Z,1.60
2022-11-22T23:41:43.044Z,1.60
2022-11-22T23:44:10.531Z,2.07
2022-11-22T23:46:37.591Z,2.23
2022-11-22T23:49:05.971Z,1.60
2022-11-22T23:51:33.865Z,1.90
2022-11-22T23:54:03.605Z,1.90
2022-11-22T23:56:33.791Z,1.57
2022-11-22T23:59:01.516Z,1.57
